createdAt,value
2019-02-11T00:04:13.503Z,98256.56
2019-02-11T00:09:17.319Z,98257.06
2019-02-11T00:14:21.142Z,98261.76
2019-02-11T00:19:24.947Z,98261.76
2019-02-11T00:24:28.754Z,98256.90
2019-02-11T00:29:32.580Z,98283.38
2019-02-11T00:34:36.372Z,98305.84
2019-02-11T00:39:40.159Z,98305.84
2019-02-11T00:44:43.971Z,98318.58
2019-02-11T00:49:47.772Z,98336.69
2019-02-11T00:54:51.571Z,98357.97
2019-02-11T00:59:55.381Z,98357.97
2019-02-11T01:04:59.165Z,98394.64
2019-02-11T01:10:03.012Z,98394.64
2019-02-11T01:15:07.629Z,98401.86
2019-02-11T01:20:12.557Z,98401.86
2019-02-11T01:25:16.350Z,98422.77
2019-02-11T01:30:20.142Z,98422.77
2019-02-11T01:35:23.952Z,98432.66
2019-02-11T01:40:27.771Z,98456.59
2019-02-11T01:45:31.563Z,98455.41
2019-02-11T01:50:35.361Z,98459.40
2019-02-11T01:55:39.160Z,98459.40
2019-02-11T02:00:42.962Z,98471.13
2019-02-11T02:05:46.761Z,98501.28
2019-02-11T02:10:50.584Z,98518.36
2019-02-11T02:15:54.378Z,98518.36
2019-02-11T02:20:58.188Z,98534.28
2019-02-11T02:26:02.019Z,98564.27
2019-02-11T02:31:05.837Z,98564.27
2019-02-11T02:36:09.626Z,98602.42
2019-02-11T02:41:13.433Z,98608.95
2019-02-11T02:46:17.224Z,98631.23
2019-02-11T02:51:21.025Z,98635.09
2019-02-11T02:56:24.870Z,98639.77
2019-02-11T03:01:28.687Z,98653.49
2019-02-11T03:06:32.491Z,98653.49
2019-02-11T03:11:36.268Z,98689.52
2019-02-11T03:16:40.088Z,98708.94
2019-02-11T03:21:43.914Z,98734.69
2019-02-11T03:26:47.714Z,98734.69
2019-02-11T03:31:51.522Z,98761.98
2019-02-11T03:36:55.330Z,98761.98
2019-02-11T03:41:59.114Z,98772.86
2019-02-11T03:47:02.944Z,98792.86
2019-02-11T03:52:06.792Z,98808.55
2019-02-11T03:57:10.583Z,98821.45
2019-02-11T04:02:14.516Z,98836.19
2019-02-11T04:07:18.274Z,98853.48
2019-02-11T04:12:22.115Z,98853.48
2019-02-11T04:17:25.959Z,98887.17
2019-02-11T04:22:29.766Z,98890.28
2019-02-11T04:27:33.554Z,98903.53
2019-02-11T04:32:37.383Z,98922.30
2019-02-11T04:37:41.192Z,98934.52
2019-02-11T04:42:44.987Z,98937.70
2019-02-11T04:47:48.781Z,98941.73
2019-02-11T04:52:52.595Z,98951.61
2019-02-11T04:57:56.403Z,98951.61
2019-02-11T05:03:00.188Z,98965.89
2019-02-11T05:08:03.966Z,98992.05
2019-02-11T05:13:07.739Z,98997.56
2019-02-11T05:18:11.540Z,99008.29
2019-02-11T05:23:15.329Z,99011.47
2019-02-11T05:28:19.112Z,99020.89
2019-02-11T05:33:23.008Z,99028.09
2019-02-11T05:38:26.783Z,99042.30
2019-02-11T05:43:30.562Z,99042.30
2019-02-11T05:48:34.375Z,99062.89
2019-02-11T05:53:38.136Z,99074.31
2019-02-11T05:58:41.925Z,99088.85
2019-02-11T06:03:45.720Z,99099.50
2019-02-11T06:08:49.497Z,99127.98
2019-02-11T06:13:53.266Z,99130.67
2019-02-11T06:18:57.043Z,99144.72
2019-02-11T06:24:00.825Z,99151.91
2019-02-11T06:29:04.614Z,99164.32
2019-02-11T06:34:08.407Z,99164.32
2019-02-11T06:39:12.182Z,99176.23
2019-02-11T06:44:15.978Z,99176.23
2019-02-11T06:49:19.925Z,99198.32
2019-02-11T06:54:23.700Z,99243.69
2019-02-11T06:59:27.477Z,99254.66
2019-02-11T07:04:31.253Z,99266.23
2019-02-11T07:09:35.027Z,99273.31
2019-02-11T07:14:38.814Z,99281.46
2019-02-11T07:19:42.587Z,99281.46
2019-02-11T07:24:46.381Z,99293.31
2019-02-11T07:29:50.160Z,99300.66
2019-02-11T07:34:53.937Z,99323.15
2019-02-11T07:39:57.714Z,99328.66
2019-02-11T07:45:05.287Z,99331.83
2019-02-11T07:50:09.332Z,99331.83
2019-02-11T07:55:13.161Z,99377.31
2019-02-11T08:00:16.933Z,99430.00
2019-02-11T08:05:20.778Z,99403.58
2019-02-11T08:10:24.685Z,99407.14
2019-02-11T08:15:28.473Z,99400.77
2019-02-11T08:20:32.274Z,99400.77
2019-02-11T08:25:36.058Z,99403.55
2019-02-11T08:30:39.840Z,99403.55
2019-02-11T08:35:43.646Z,99425.94
2019-02-11T08:40:47.470Z,99430.84
2019-02-11T08:45:51.507Z,99446.93
2019-02-11T08:50:55.369Z,99448.55
2019-02-11T08:55:59.175Z,99462.30
2019-02-11T09:01:02.954Z,99462.30
2019-02-11T09:06:06.738Z,99482.30
2019-02-11T09:11:10.509Z,99482.30
2019-02-11T09:16:14.280Z,99489.39
2019-02-11T09:21:18.070Z,99493.02
2019-02-11T09:26:21.860Z,99502.22
2019-02-11T09:31:25.655Z,99516.64
2019-02-11T09:36:29.436Z,99516.13
2019-02-11T09:41:33.220Z,99516.13
2019-02-11T09:46:37.032Z,99539.64
2019-02-11T09:51:44.021Z,99542.25
2019-02-11T09:56:47.809Z,99542.25
2019-02-11T10:01:51.664Z,99565.73
2019-02-11T10:06:55.466Z,99574.69
2019-02-11T10:11:59.242Z,99574.69
2019-02-11T10:17:03.112Z,99592.72
2019-02-11T10:22:06.901Z,99592.72
2019-02-11T10:27:10.689Z,99604.66
2019-02-11T10:32:14.477Z,99604.66
2019-02-11T10:37:18.271Z,99628.30
2019-02-11T10:42:22.051Z,99628.30
2019-02-11T10:47:25.835Z,99637.52
2019-02-11T10:52:29.598Z,99638.89
2019-02-11T10:57:33.444Z,99653.41
2019-02-11T11:02:37.309Z,99653.41
2019-02-11T11:07:41.168Z,99652.83
2019-02-11T11:12:45.095Z,99652.83
2019-02-11T11:17:48.875Z,99676.83
2019-02-11T11:22:52.648Z,99676.83
2019-02-11T11:27:56.443Z,99677.05
2019-02-11T11:33:00.257Z,99677.05
2019-02-11T11:38:04.164Z,99687.78
2019-02-11T11:43:07.969Z,99733.66
2019-02-11T11:48:11.745Z,99754.28
2019-02-11T11:53:15.681Z,99751.88
2019-02-11T11:58:19.513Z,99759.88
2019-02-11T12:03:23.318Z,99763.29
2019-02-11T12:08:27.085Z,99763.29
2019-02-11T12:13:30.878Z,99762.09
2019-02-11T12:18:34.682Z,99769.14
2019-02-11T12:23:38.495Z,99786.34
2019-02-11T12:28:42.277Z,99814.62
2019-02-11T12:33:46.079Z,99824.69
2019-02-11T12:38:49.928Z,99824.69
2019-02-11T12:43:53.731Z,99814.58
2019-02-11T12:49:01.453Z,99835.89
2019-02-11T12:54:03.210Z,99858.33
2019-02-11T12:59:07.367Z,99884.32
2019-02-11T13:04:11.188Z,99884.32
2019-02-11T13:09:15.067Z,99886.54
2019-02-11T13:14:19.018Z,99875.09
2019-02-11T13:19:22.935Z,99878.92
2019-02-11T13:24:26.775Z,99872.85
2019-02-11T13:29:30.750Z,99888.25
2019-02-11T13:34:34.543Z,99888.25
2019-02-11T13:39:38.337Z,99897.27
2019-02-11T13:44:42.187Z,99913.09
2019-02-11T13:49:46.788Z,99930.74
2019-02-11T13:54:51.489Z,99952.20
2019-02-11T13:59:55.272Z,99964.38
2019-02-11T14:04:59.058Z,99974.42
2019-02-11T14:10:03.017Z,99974.42
2019-02-11T14:15:06.953Z,99981.62
2019-02-11T14:20:17.921Z,100025.16
2019-02-11T14:25:40.509Z,100025.16
2019-02-11T14:30:27.228Z,100024.04
2019-02-11T14:35:31.060Z,100033.69
2019-02-11T14:40:34.891Z,100033.69
2019-02-11T14:45:38.703Z,100055.52
2019-02-11T14:50:42.490Z,100058.20
2019-02-11T14:55:46.331Z,100070.87
2019-02-11T15:00:50.199Z,100069.27
2019-02-11T15:05:54.055Z,100078.55
2019-02-11T15:10:57.884Z,100094.64
2019-02-11T15:16:02.544Z,100104.16
2019-02-11T15:21:06.328Z,100125.83
2019-02-11T15:26:10.120Z,100125.83
2019-02-11T15:31:13.900Z,100174.09
2019-02-11T15:36:17.784Z,100203.73
2019-02-11T15:41:21.644Z,100203.73
2019-02-11T15:46:25.508Z,100215.69
2019-02-11T15:51:29.289Z,100225.72
2019-02-11T15:56:33.120Z,100241.81
2019-02-11T16:01:36.963Z,100251.09
2019-02-11T16:06:40.790Z,100258.04
2019-02-11T16:11:44.616Z,100258.04
2019-02-11T16:16:48.611Z,100292.56
2019-02-11T16:21:52.491Z,100301.80
2019-02-11T16:26:56.328Z,100308.63
2019-02-11T16:32:00.998Z,100308.63
2019-02-11T16:37:05.018Z,100332.92
2019-02-11T16:42:08.838Z,100340.57
2019-02-11T16:47:12.644Z,100355.45
2019-02-11T16:52:16.466Z,100357.43
2019-02-11T16:57:21.510Z,100369.75
2019-02-11T17:02:25.327Z,100387.70
2019-02-11T17:07:29.117Z,100396.48
2019-02-11T17:12:32.967Z,100409.05
2019-02-11T17:17:36.773Z,100416.97
2019-02-11T17:22:40.607Z,100422.38
2019-02-11T17:27:44.491Z,100440.64
2019-02-11T17:32:48.381Z,100459.64
2019-02-11T17:37:52.156Z,100459.64
2019-02-11T17:42:56.025Z,100475.43
2019-02-11T17:53:03.689Z,100489.36
2019-02-11T17:58:07.568Z,100511.71
2019-02-11T18:03:11.755Z,100514.66
2019-02-11T18:08:15.594Z,100544.20
2019-02-11T18:13:19.465Z,100548.37
2019-02-11T18:18:23.522Z,100548.37
2019-02-11T18:28:30.229Z,100589.41
2019-02-11T18:33:34.092Z,100589.41
2019-02-11T18:38:38.115Z,100614.62
2019-02-11T18:43:41.896Z,100614.62
2019-02-11T18:48:45.796Z,100637.61
2019-02-11T18:53:49.641Z,100643.70
2019-02-11T18:58:53.454Z,100659.45
2019-02-11T19:03:57.236Z,100669.88
2019-02-11T19:09:01.037Z,100669.88
2019-02-11T19:14:05.048Z,100708.13
2019-02-11T19:19:08.848Z,100708.13
2019-02-11T19:24:12.742Z,100725.48
2019-02-11T19:29:16.583Z,100737.55
2019-02-11T19:34:20.486Z,100754.66
2019-02-11T19:39:24.263Z,100765.81
2019-02-11T19:44:28.066Z,100765.81
2019-02-11T19:49:31.879Z,100768.30
2019-02-11T19:54:35.823Z,100774.16
2019-02-11T19:59:39.601Z,100789.65
2019-02-11T20:04:43.416Z,100795.39
2019-02-11T20:09:47.222Z,100794.33
2019-02-11T20:14:51.105Z,100807.33
2019-02-11T20:20:00.077Z,100823.21
2019-02-11T20:25:02.092Z,100823.21
2019-02-11T20:30:07.845Z,100827.69
2019-02-11T20:35:11.616Z,100838.16
2019-02-11T20:40:17.337Z,100834.01
2019-02-11T20:45:23.604Z,100859.16
2019-02-11T20:50:27.528Z,100866.55
2019-02-11T20:55:31.330Z,100875.93
2019-02-11T21:00:35.089Z,100875.93
2019-02-11T21:05:38.880Z,100878.33
2019-02-11T21:10:42.677Z,100899.10
2019-02-11T21:15:47.167Z,100905.41
2019-02-11T21:20:50.945Z,100908.95
2019-02-11T21:25:54.758Z,100919.33
2019-02-11T21:30:58.669Z,100917.02
2019-02-11T21:36:02.527Z,100928.06
2019-02-11T21:41:06.313Z,100926.23
2019-02-11T21:46:10.102Z,100927.80
2019-02-11T21:51:13.881Z,100938.00
2019-02-11T21:56:17.748Z,100942.91
2019-02-11T22:01:21.619Z,100941.77
2019-02-11T22:06:25.420Z,100945.83
2019-02-11T22:11:29.197Z,100956.01
2019-02-11T22:16:32.990Z,100956.01
2019-02-11T22:21:36.815Z,100955.52
2019-02-11T22:26:40.617Z,100955.52
2019-02-11T22:31:44.406Z,100960.70
2019-02-11T22:36:48.203Z,100958.66
2019-02-11T22:41:51.972Z,100958.66
2019-02-11T22:46:55.757Z,100960.30
2019-02-11T22:51:59.545Z,100960.30
2019-02-11T22:57:03.397Z,100978.30
2019-02-11T23:02:07.338Z,100978.30
2019-02-11T23:07:11.305Z,100997.16
2019-02-11T23:12:15.116Z,101006.63
2019-02-11T23:17:19.161Z,101013.75
2019-02-11T23:22:23.076Z,101013.75
2019-02-11T23:27:26.851Z,101034.55
2019-02-11T23:32:31.109Z,101048.19
2019-02-11T23:37:34.900Z,101047.23
2019-02-11T23:42:38.776Z,101047.23
2019-02-11T23:47:42.868Z,101059.41
2019-02-11T23:52:46.723Z,101076.01
2019-02-11T23:57:50.521Z,101070.64
